Impacts TAF Board INFO
FOR SITUATIONAL AWARENESS. NOT TO BE USED FOR FLIGHT PLANNING PURPOSES.
IDs:

KMCO - Orlando Intl, FL, US

Issued at 1757 UTC 23 Mar 2017
Updated at 2011 UTC 23 Mar 2017
Potential Impact None Slight Moderate High
Time1953Z 23/21Z 23/22Z 23/23Z 24/00Z 24/01Z 24/02Z 24/03Z 24/04Z 24/05Z 24/06Z 24/07Z 24/08Z 24/09Z
Type OBS PRVL PRVL PRVL PRVL PRVL PRVL PRVL PRVL PRVL PRVL PRVL PRVL PRVL
VIS 10 >6 >6 >6 >6 >6 >6 >6 >6 >6 >6 >6 >6 >6
CIG 55 60 80 80 80 100 100 100 100 100 100 100 100 100
Cover BKN OVC BKN BKN BKN BKN BKN BKN BKN BKN BKN BKN BKN BKN
FltCat VFR VFR VFR VFR VFR VFR VFR VFR VFR VFR VFR VFR VFR VFR
WX -RA VCSH -- -- -- -- -- -- -- -- -- -- -- --
WDir 70 70 70 70 70 40 40 40 40 40 40 40 40 40
WSpd 19 17 15 15 15 10 10 10 10 10 10 10 10 10
WGst 24 24 22 22 22 -- -- -- -- -- -- -- -- --

Raw TAF
KMCO 231757Z 2318/2418 07017G24KT P6SM VCSH SCT025 BKN060 OVC120
  TEMPO 2318/2321 3SM SHRA BKN015 OVC030
  FM232200 07015G22KT P6SM SCT035 BKN080
  FM240100 04010KT P6SM FEW030 BKN100
  FM241400 08015G22KT P6SM SCT030 BKN120


Raw METAR
KMCO 231953Z 07019G24KT 10SM -RA SCT026 BKN055 BKN090 BKN250 25/16 A3026 RMK AO2 PK WND 07030/1909 RAB00E15B51 SLP244 P0000 T02500161
KMCO 231853Z 09019KT 10SM FEW032 SCT055 BKN100 BKN250 26/15 A3025 RMK AO2 PK WND 07027/1836 SLP243 T02610150
KMCO 231753Z 08018G23KT 10SM FEW030 SCT041 BKN120 BKN250 27/16 A3026 RMK AO2 PK WND 06026/1733 RAE08 SLP244 VCSH N P0000 60000 T02670161 10267 20194 58003

METAR Board
Radar Display
Forecast Discussion

FOR SITUATIONAL AWARENESS. NOT TO BE USED FOR FLIGHT PLANNING PURPOSES.

Page loaded:  20:11 UTC  |   01:11 PM Pacific  |   02:11 PM Mountain  |   03:11 PM Central  |   04:11 PM Eastern

 

ADVISORIES

FORECASTS

FORECASTS

OBSERVATIONS

USER TOOLS

ABOUT US